sensor_id;sensor_type;location;lat;lon;timestamp;temperature;humidity
10083;DHT22;5080;48.528;8.078;2023-07-13T00:00:36;22.40;99.90
10083;DHT22;5080;48.528;8.078;2023-07-13T00:03:03;22.40;99.90
10083;DHT22;5080;48.528;8.078;2023-07-13T00:05:30;22.40;99.90
10083;DHT22;5080;48.528;8.078;2023-07-13T00:07:57;22.40;99.90
10083;DHT22;5080;48.528;8.078;2023-07-13T00:10:24;22.40;99.90
10083;DHT22;5080;48.528;8.078;2023-07-13T00:12:53;22.40;99.90
10083;DHT22;5080;48.528;8.078;2023-07-13T00:15:22;22.40;99.90
10083;DHT22;5080;48.528;8.078;2023-07-13T00:17:49;22.60;99.90
10083;DHT22;5080;48.528;8.078;2023-07-13T00:20:16;22.70;99.90
10083;DHT22;5080;48.528;8.078;2023-07-13T00:22:43;22.50;99.90
10083;DHT22;5080;48.528;8.078;2023-07-13T00:25:11;22.30;99.90
10083;DHT22;5080;48.528;8.078;2023-07-13T00:27:38;22.40;99.90
10083;DHT22;5080;48.528;8.078;2023-07-13T00:30:07;22.40;99.90
10083;DHT22;5080;48.528;8.078;2023-07-13T00:32:34;22.40;99.90
10083;DHT22;5080;48.528;8.078;2023-07-13T00:35:02;22.60;99.90
10083;DHT22;5080;48.528;8.078;2023-07-13T00:37:30;22.70;99.90
10083;DHT22;5080;48.528;8.078;2023-07-13T00:39:57;22.70;99.90
10083;DHT22;5080;48.528;8.078;2023-07-13T00:42:24;22.70;99.90
10083;DHT22;5080;48.528;8.078;2023-07-13T00:48:17;22.10;99.90
10083;DHT22;5080;48.528;8.078;2023-07-13T00:50:47;21.90;99.90
10083;DHT22;5080;48.528;8.078;2023-07-13T00:53:15;21.80;99.90
10083;DHT22;5080;48.528;8.078;2023-07-13T00:55:42;21.80;99.90
10083;DHT22;5080;48.528;8.078;2023-07-13T00:58:09;21.90;99.90
10083;DHT22;5080;48.528;8.078;2023-07-13T01:00:38;21.60;99.90
10083;DHT22;5080;48.528;8.078;2023-07-13T01:03:06;21.50;99.90
10083;DHT22;5080;48.528;8.078;2023-07-13T01:05:34;21.40;99.90
10083;DHT22;5080;48.528;8.078;2023-07-13T01:08:02;21.40;99.90
10083;DHT22;5080;48.528;8.078;2023-07-13T01:10:31;21.30;99.90
10083;DHT22;5080;48.528;8.078;2023-07-13T01:13:04;21.30;99.90
10083;DHT22;5080;48.528;8.078;2023-07-13T01:15:38;21.30;99.90
10083;DHT22;5080;48.528;8.078;2023-07-13T01:18:07;21.40;99.90
10083;DHT22;5080;48.528;8.078;2023-07-13T01:20:36;21.50;99.90
10083;DHT22;5080;48.528;8.078;2023-07-13T01:23:07;21.40;99.90
10083;DHT22;5080;48.528;8.078;2023-07-13T01:25:35;21.50;99.90
10083;DHT22;5080;48.528;8.078;2023-07-13T01:28:02;21.50;99.90
10083;DHT22;5080;48.528;8.078;2023-07-13T01:30:29;21.50;99.90
10083;DHT22;5080;48.528;8.078;2023-07-13T01:32:56;21.30;99.90
10083;DHT22;5080;48.528;8.078;2023-07-13T01:35:23;21.30;99.90
10083;DHT22;5080;48.528;8.078;2023-07-13T01:37:50;21.30;99.90
10083;DHT22;5080;48.528;8.078;2023-07-13T01:40:19;21.30;99.90
10083;DHT22;5080;48.528;8.078;2023-07-13T01:42:46;21.30;99.90
10083;DHT22;5080;48.528;8.078;2023-07-13T01:45:13;21.30;99.90
10083;DHT22;5080;48.528;8.078;2023-07-13T01:47:40;21.40;99.90
10083;DHT22;5080;48.528;8.078;2023-07-13T01:50:07;21.60;99.90
10083;DHT22;5080;48.528;8.078;2023-07-13T01:52:34;21.60;99.90
10083;DHT22;5080;48.528;8.078;2023-07-13T01:55:01;21.70;99.90
10083;DHT22;5080;48.528;8.078;2023-07-13T01:57:29;21.70;99.90
10083;DHT22;5080;48.528;8.078;2023-07-13T01:59:56;21.50;99.90
10083;DHT22;5080;48.528;8.078;2023-07-13T02:02:23;21.10;99.90
10083;DHT22;5080;48.528;8.078;2023-07-13T02:04:50;21.00;99.90
10083;DHT22;5080;48.528;8.078;2023-07-13T02:07:16;20.80;99.90
10083;DHT22;5080;48.528;8.078;2023-07-13T02:09:43;20.90;99.90
10083;DHT22;5080;48.528;8.078;2023-07-13T02:12:10;20.70;99.90
10083;DHT22;5080;48.528;8.078;2023-07-13T02:14:38;20.60;99.90
10083;DHT22;5080;48.528;8.078;2023-07-13T02:17:05;20.80;99.90
10083;DHT22;5080;48.528;8.078;2023-07-13T02:19:32;20.90;99.90
10083;DHT22;5080;48.528;8.078;2023-07-13T02:21:59;21.00;99.90
10083;DHT22;5080;48.528;8.078;2023-07-13T02:24:26;21.00;99.90
10083;DHT22;5080;48.528;8.078;2023-07-13T02:26:53;20.80;99.90
10083;DHT22;5080;48.528;8.078;2023-07-13T02:29:20;20.60;99.90
10083;DHT22;5080;48.528;8.078;2023-07-13T02:31:48;20.60;99.90
10083;DHT22;5080;48.528;8.078;2023-07-13T02:34:15;20.40;99.90
10083;DHT22;5080;48.528;8.078;2023-07-13T02:36:42;20.40;99.90
10083;DHT22;5080;48.528;8.078;2023-07-13T02:39:09;20.50;99.90
10083;DHT22;5080;48.528;8.078;2023-07-13T02:41:38;20.70;99.90
10083;DHT22;5080;48.528;8.078;2023-07-13T02:44:05;20.80;99.90
10083;DHT22;5080;48.528;8.078;2023-07-13T02:46:34;20.80;99.90
10083;DHT22;5080;48.528;8.078;2023-07-13T02:49:03;20.90;99.90
10083;DHT22;5080;48.528;8.078;2023-07-13T02:51:30;20.90;99.90
10083;DHT22;5080;48.528;8.078;2023-07-13T02:53:59;20.70;99.90
10083;DHT22;5080;48.528;8.078;2023-07-13T02:56:27;20.50;99.90
10083;DHT22;5080;48.528;8.078;2023-07-13T02:58:54;20.50;99.90
10083;DHT22;5080;48.528;8.078;2023-07-13T03:01:21;20.50;99.90
10083;DHT22;5080;48.528;8.078;2023-07-13T03:03:49;20.30;99.90
10083;DHT22;5080;48.528;8.078;2023-07-13T03:06:18;20.30;99.90
10083;DHT22;5080;48.528;8.078;2023-07-13T03:08:45;20.30;99.90
10083;DHT22;5080;48.528;8.078;2023-07-13T03:11:15;20.20;99.90
10083;DHT22;5080;48.528;8.078;2023-07-13T03:13:42;20.30;99.90
10083;DHT22;5080;48.528;8.078;2023-07-13T03:16:10;20.30;99.90
10083;DHT22;5080;48.528;8.078;2023-07-13T03:18:37;20.40;99.90
10083;DHT22;5080;48.528;8.078;2023-07-13T03:21:05;20.60;99.90
10083;DHT22;5080;48.528;8.078;2023-07-13T03:23:33;20.80;99.90
10083;DHT22;5080;48.528;8.078;2023-07-13T03:26:05;20.80;99.90
10083;DHT22;5080;48.528;8.078;2023-07-13T03:28:32;20.70;99.90
10083;DHT22;5080;48.528;8.078;2023-07-13T03:31:00;20.40;99.90
10083;DHT22;5080;48.528;8.078;2023-07-13T03:33:28;20.40;99.90
10083;DHT22;5080;48.528;8.078;2023-07-13T03:35:55;20.30;99.90
10083;DHT22;5080;48.528;8.078;2023-07-13T03:38:22;20.30;99.90
10083;DHT22;5080;48.528;8.078;2023-07-13T03:40:50;20.20;99.90
10083;DHT22;5080;48.528;8.078;2023-07-13T03:43:17;20.10;99.90
10083;DHT22;5080;48.528;8.078;2023-07-13T03:45:44;20.00;99.90
10083;DHT22;5080;48.528;8.078;2023-07-13T03:48:10;19.90;99.90
10083;DHT22;5080;48.528;8.078;2023-07-13T03:50:37;20.00;99.90
10083;DHT22;5080;48.528;8.078;2023-07-13T03:53:04;20.10;99.90
10083;DHT22;5080;48.528;8.078;2023-07-13T03:55:31;20.20;99.90
10083;DHT22;5080;48.528;8.078;2023-07-13T04:00:48;19.90;99.90
10083;DHT22;5080;48.528;8.078;2023-07-13T04:03:15;19.90;99.90
10083;DHT22;5080;48.528;8.078;2023-07-13T04:05:43;20.00;99.90
10083;DHT22;5080;48.528;8.078;2023-07-13T04:08:09;20.20;99.90
10083;DHT22;5080;48.528;8.078;2023-07-13T04:10:36;20.40;99.90
10083;DHT22;5080;48.528;8.078;2023-07-13T04:13:05;20.50;99.90
10083;DHT22;5080;48.528;8.078;2023-07-13T04:15:33;20.30;99.90
10083;DHT22;5080;48.528;8.078;2023-07-13T04:18:00;20.30;99.90
10083;DHT22;5080;48.528;8.078;2023-07-13T04:20:29;20.30;99.90
10083;DHT22;5080;48.528;8.078;2023-07-13T04:22:56;20.10;99.90
10083;DHT22;5080;48.528;8.078;2023-07-13T04:25:24;20.40;99.90
10083;DHT22;5080;48.528;8.078;2023-07-13T04:27:50;20.50;99.90
10083;DHT22;5080;48.528;8.078;2023-07-13T04:30:20;20.50;99.90
10083;DHT22;5080;48.528;8.078;2023-07-13T04:32:47;20.20;99.90
10083;DHT22;5080;48.528;8.078;2023-07-13T04:35:14;20.20;99.90
10083;DHT22;5080;48.528;8.078;2023-07-13T04:37:41;20.20;99.90
10083;DHT22;5080;48.528;8.078;2023-07-13T04:40:08;20.10;99.90
10083;DHT22;5080;48.528;8.078;2023-07-13T04:42:37;20.00;99.90
10083;DHT22;5080;48.528;8.078;2023-07-13T04:45:05;20.10;99.90
10083;DHT22;5080;48.528;8.078;2023-07-13T04:47:34;20.20;99.90
10083;DHT22;5080;48.528;8.078;2023-07-13T04:50:01;20.50;99.90
10083;DHT22;5080;48.528;8.078;2023-07-13T04:52:28;20.70;99.90
10083;DHT22;5080;48.528;8.078;2023-07-13T04:54:55;20.90;99.90
10083;DHT22;5080;48.528;8.078;2023-07-13T04:57:21;21.00;99.90
10083;DHT22;5080;48.528;8.078;2023-07-13T04:59:48;21.10;99.90
10083;DHT22;5080;48.528;8.078;2023-07-13T05:02:15;21.20;99.90
10083;DHT22;5080;48.528;8.078;2023-07-13T05:04:46;21.30;99.90
10083;DHT22;5080;48.528;8.078;2023-07-13T05:07:13;21.40;99.90
10083;DHT22;5080;48.528;8.078;2023-07-13T05:09:40;21.30;99.90
10083;DHT22;5080;48.528;8.078;2023-07-13T05:12:08;21.40;99.90
10083;DHT22;5080;48.528;8.078;2023-07-13T05:14:35;21.50;99.90
10083;DHT22;5080;48.528;8.078;2023-07-13T05:17:02;21.50;99.90
10083;DHT22;5080;48.528;8.078;2023-07-13T05:19:29;21.50;99.90
10083;DHT22;5080;48.528;8.078;2023-07-13T05:21:57;21.70;99.90
10083;DHT22;5080;48.528;8.078;2023-07-13T05:24:25;21.90;99.90
10083;DHT22;5080;48.528;8.078;2023-07-13T05:26:52;22.10;99.90
10083;DHT22;5080;48.528;8.078;2023-07-13T05:29:20;22.20;99.90
10083;DHT22;5080;48.528;8.078;2023-07-13T05:31:46;22.20;99.90
10083;DHT22;5080;48.528;8.078;2023-07-13T05:34:13;22.20;99.90
10083;DHT22;5080;48.528;8.078;2023-07-13T05:36:40;21.90;99.90
10083;DHT22;5080;48.528;8.078;2023-07-13T05:39:08;21.60;99.90
10083;DHT22;5080;48.528;8.078;2023-07-13T05:41:37;21.80;99.90
10083;DHT22;5080;48.528;8.078;2023-07-13T05:44:04;21.80;99.90
10083;DHT22;5080;48.528;8.078;2023-07-13T05:46:30;21.90;99.90
10083;DHT22;5080;48.528;8.078;2023-07-13T05:48:57;22.10;99.90
10083;DHT22;5080;48.528;8.078;2023-07-13T05:51:24;22.20;99.90
10083;DHT22;5080;48.528;8.078;2023-07-13T05:53:51;22.30;99.90
10083;DHT22;5080;48.528;8.078;2023-07-13T05:56:19;22.30;99.90
10083;DHT22;5080;48.528;8.078;2023-07-13T05:58:47;22.40;99.90
10083;DHT22;5080;48.528;8.078;2023-07-13T06:01:15;22.30;99.90
10083;DHT22;5080;48.528;8.078;2023-07-13T06:03:43;22.20;99.90
10083;DHT22;5080;48.528;8.078;2023-07-13T06:06:10;22.30;99.90
10083;DHT22;5080;48.528;8.078;2023-07-13T06:08:37;22.50;99.90
10083;DHT22;5080;48.528;8.078;2023-07-13T06:11:05;22.70;99.90
10083;DHT22;5080;48.528;8.078;2023-07-13T06:13:33;22.60;99.90
10083;DHT22;5080;48.528;8.078;2023-07-13T06:16:00;22.40;99.90
10083;DHT22;5080;48.528;8.078;2023-07-13T06:18:29;22.30;99.90
10083;DHT22;5080;48.528;8.078;2023-07-13T06:20:56;22.40;99.90
10083;DHT22;5080;48.528;8.078;2023-07-13T06:23:23;22.40;99.90
10083;DHT22;5080;48.528;8.078;2023-07-13T06:25:51;22.50;99.90
10083;DHT22;5080;48.528;8.078;2023-07-13T06:28:18;22.60;99.90
10083;DHT22;5080;48.528;8.078;2023-07-13T06:30:46;22.60;99.90
10083;DHT22;5080;48.528;8.078;2023-07-13T06:33:13;22.70;99.90
10083;DHT22;5080;48.528;8.078;2023-07-13T06:35:40;22.70;99.90
10083;DHT22;5080;48.528;8.078;2023-07-13T06:38:07;22.80;99.90
10083;DHT22;5080;48.528;8.078;2023-07-13T06:40:33;23.00;99.90
10083;DHT22;5080;48.528;8.078;2023-07-13T06:43:00;23.10;99.90
10083;DHT22;5080;48.528;8.078;2023-07-13T06:45:27;23.10;99.90
10083;DHT22;5080;48.528;8.078;2023-07-13T06:47:55;23.20;99.90
10083;DHT22;5080;48.528;8.078;2023-07-13T06:50:22;23.30;99.90
10083;DHT22;5080;48.528;8.078;2023-07-13T06:52:49;23.20;99.90
10083;DHT22;5080;48.528;8.078;2023-07-13T06:55:16;23.30;99.90
10083;DHT22;5080;48.528;8.078;2023-07-13T06:57:43;23.20;99.90
10083;DHT22;5080;48.528;8.078;2023-07-13T07:00:11;23.20;99.90
10083;DHT22;5080;48.528;8.078;2023-07-13T07:02:38;23.20;99.90
10083;DHT22;5080;48.528;8.078;2023-07-13T07:05:06;23.20;99.90
10083;DHT22;5080;48.528;8.078;2023-07-13T07:07:33;23.30;99.90
10083;DHT22;5080;48.528;8.078;2023-07-13T07:10:00;23.10;99.90
10083;DHT22;5080;48.528;8.078;2023-07-13T07:12:27;23.10;99.90
10083;DHT22;5080;48.528;8.078;2023-07-13T07:14:54;23.10;99.90
10083;DHT22;5080;48.528;8.078;2023-07-13T07:17:21;23.20;99.90
10083;DHT22;5080;48.528;8.078;2023-07-13T07:19:48;23.20;99.90
10083;DHT22;5080;48.528;8.078;2023-07-13T07:22:16;23.30;99.90
10083;DHT22;5080;48.528;8.078;2023-07-13T07:24:42;23.30;99.90
10083;DHT22;5080;48.528;8.078;2023-07-13T07:27:09;23.40;99.90
10083;DHT22;5080;48.528;8.078;2023-07-13T07:29:36;23.50;99.90
10083;DHT22;5080;48.528;8.078;2023-07-13T07:32:03;23.70;99.90
10083;DHT22;5080;48.528;8.078;2023-07-13T07:34:31;24.00;99.90
10083;DHT22;5080;48.528;8.078;2023-07-13T07:37:00;23.90;99.90
10083;DHT22;5080;48.528;8.078;2023-07-13T07:39:28;23.80;99.90
10083;DHT22;5080;48.528;8.078;2023-07-13T07:41:55;23.80;99.90
10083;DHT22;5080;48.528;8.078;2023-07-13T07:44:22;23.90;99.90
10083;DHT22;5080;48.528;8.078;2023-07-13T07:46:49;23.80;99.90
10083;DHT22;5080;48.528;8.078;2023-07-13T07:49:16;23.80;99.90
10083;DHT22;5080;48.528;8.078;2023-07-13T07:51:43;23.80;99.90
10083;DHT22;5080;48.528;8.078;2023-07-13T07:54:10;23.90;99.90
10083;DHT22;5080;48.528;8.078;2023-07-13T07:56:38;24.00;99.90
10083;DHT22;5080;48.528;8.078;2023-07-13T07:59:05;24.10;99.90
10083;DHT22;5080;48.528;8.078;2023-07-13T08:01:31;24.20;99.90
10083;DHT22;5080;48.528;8.078;2023-07-13T08:03:58;24.40;99.90
10083;DHT22;5080;48.528;8.078;2023-07-13T08:06:25;24.70;99.90
10083;DHT22;5080;48.528;8.078;2023-07-13T08:08:52;24.70;99.90
10083;DHT22;5080;48.528;8.078;2023-07-13T08:11:21;24.70;99.90
10083;DHT22;5080;48.528;8.078;2023-07-13T08:13:49;24.80;99.90
10083;DHT22;5080;48.528;8.078;2023-07-13T08:16:16;25.00;99.90
10083;DHT22;5080;48.528;8.078;2023-07-13T08:18:43;25.00;99.90
10083;DHT22;5080;48.528;8.078;2023-07-13T08:21:10;24.90;99.90
10083;DHT22;5080;48.528;8.078;2023-07-13T08:23:37;25.00;99.90
10083;DHT22;5080;48.528;8.078;2023-07-13T08:26:04;25.10;99.90
10083;DHT22;5080;48.528;8.078;2023-07-13T08:28:31;25.00;99.90
10083;DHT22;5080;48.528;8.078;2023-07-13T08:31:02;24.90;99.90
10083;DHT22;5080;48.528;8.078;2023-07-13T08:33:29;25.00;99.90
10083;DHT22;5080;48.528;8.078;2023-07-13T08:35:56;25.20;99.90
10083;DHT22;5080;48.528;8.078;2023-07-13T08:38:23;25.50;99.90
10083;DHT22;5080;48.528;8.078;2023-07-13T08:40:52;25.60;99.90
10083;DHT22;5080;48.528;8.078;2023-07-13T08:43:25;25.80;99.90
10083;DHT22;5080;48.528;8.078;2023-07-13T08:45:54;25.90;99.90
10083;DHT22;5080;48.528;8.078;2023-07-13T08:48:26;25.60;99.90
10083;DHT22;5080;48.528;8.078;2023-07-13T08:50:57;25.70;99.90
10083;DHT22;5080;48.528;8.078;2023-07-13T08:53:33;26.00;99.90
10083;DHT22;5080;48.528;8.078;2023-07-13T08:56:01;25.90;99.90
10083;DHT22;5080;48.528;8.078;2023-07-13T08:58:29;26.00;99.90
10083;DHT22;5080;48.528;8.078;2023-07-13T09:00:58;26.10;99.90
10083;DHT22;5080;48.528;8.078;2023-07-13T09:03:37;26.30;99.90
10083;DHT22;5080;48.528;8.078;2023-07-13T09:06:09;26.20;99.90
10083;DHT22;5080;48.528;8.078;2023-07-13T09:08:48;26.40;99.90
10083;DHT22;5080;48.528;8.078;2023-07-13T09:11:27;26.40;99.90
10083;DHT22;5080;48.528;8.078;2023-07-13T09:14:06;26.60;99.90
10083;DHT22;5080;48.528;8.078;2023-07-13T09:16:41;26.70;99.90
10083;DHT22;5080;48.528;8.078;2023-07-13T09:19:15;26.40;99.90
10083;DHT22;5080;48.528;8.078;2023-07-13T09:21:44;26.20;99.90
10083;DHT22;5080;48.528;8.078;2023-07-13T09:24:28;26.20;99.90
10083;DHT22;5080;48.528;8.078;2023-07-13T09:26:56;26.40;99.90
10083;DHT22;5080;48.528;8.078;2023-07-13T09:29:33;26.40;99.90
10083;DHT22;5080;48.528;8.078;2023-07-13T09:32:03;26.30;99.90
10083;DHT22;5080;48.528;8.078;2023-07-13T09:34:32;26.50;99.90
10083;DHT22;5080;48.528;8.078;2023-07-13T09:37:00;26.70;99.90
10083;DHT22;5080;48.528;8.078;2023-07-13T09:39:30;26.90;99.90
10083;DHT22;5080;48.528;8.078;2023-07-13T09:42:03;27.10;99.90
10083;DHT22;5080;48.528;8.078;2023-07-13T09:44:35;27.00;99.90
10083;DHT22;5080;48.528;8.078;2023-07-13T09:47:02;26.90;99.90
10083;DHT22;5080;48.528;8.078;2023-07-13T09:49:35;26.80;99.90
10083;DHT22;5080;48.528;8.078;2023-07-13T09:52:04;26.80;99.90
10083;DHT22;5080;48.528;8.078;2023-07-13T09:54:34;27.00;99.90
10083;DHT22;5080;48.528;8.078;2023-07-13T09:57:03;27.20;99.90
10083;DHT22;5080;48.528;8.078;2023-07-13T09:59:32;27.30;99.90
10083;DHT22;5080;48.528;8.078;2023-07-13T10:02:00;27.60;99.90
10083;DHT22;5080;48.528;8.078;2023-07-13T10:04:30;27.80;99.90
10083;DHT22;5080;48.528;8.078;2023-07-13T10:07:07;27.80;99.90
10083;DHT22;5080;48.528;8.078;2023-07-13T10:09:34;27.70;99.90
10083;DHT22;5080;48.528;8.078;2023-07-13T10:12:01;27.50;99.90
10083;DHT22;5080;48.528;8.078;2023-07-13T10:14:29;27.70;99.90
10083;DHT22;5080;48.528;8.078;2023-07-13T10:17:00;27.80;99.90
10083;DHT22;5080;48.528;8.078;2023-07-13T10:19:31;28.10;99.90
10083;DHT22;5080;48.528;8.078;2023-07-13T10:22:01;28.20;99.90
10083;DHT22;5080;48.528;8.078;2023-07-13T10:24:32;27.80;99.90
10083;DHT22;5080;48.528;8.078;2023-07-13T10:27:03;27.60;99.90
10083;DHT22;5080;48.528;8.078;2023-07-13T10:29:36;27.40;99.90
10083;DHT22;5080;48.528;8.078;2023-07-13T10:32:09;27.60;99.90
10083;DHT22;5080;48.528;8.078;2023-07-13T10:34:37;27.40;99.90
10083;DHT22;5080;48.528;8.078;2023-07-13T10:37:05;27.10;99.90
10083;DHT22;5080;48.528;8.078;2023-07-13T10:39:35;26.90;99.90
10083;DHT22;5080;48.528;8.078;2023-07-13T10:42:06;26.80;99.90
10083;DHT22;5080;48.528;8.078;2023-07-13T10:44:38;27.20;99.90
10083;DHT22;5080;48.528;8.078;2023-07-13T10:47:10;27.40;99.90
10083;DHT22;5080;48.528;8.078;2023-07-13T10:49:40;27.50;99.90
10083;DHT22;5080;48.528;8.078;2023-07-13T10:52:42;27.40;99.90
10083;DHT22;5080;48.528;8.078;2023-07-13T10:55:33;27.20;99.90
10083;DHT22;5080;48.528;8.078;2023-07-13T10:58:02;27.00;99.90
10083;DHT22;5080;48.528;8.078;2023-07-13T11:00:32;27.10;99.90
10083;DHT22;5080;48.528;8.078;2023-07-13T11:03:14;27.20;99.90
10083;DHT22;5080;48.528;8.078;2023-07-13T11:05:41;27.50;99.90
10083;DHT22;5080;48.528;8.078;2023-07-13T11:08:16;27.60;99.90
10083;DHT22;5080;48.528;8.078;2023-07-13T11:10:50;27.50;99.90
10083;DHT22;5080;48.528;8.078;2023-07-13T11:16:43;26.90;99.90
10083;DHT22;5080;48.528;8.078;2023-07-13T11:19:28;27.20;99.90
10083;DHT22;5080;48.528;8.078;2023-07-13T11:22:15;27.50;99.90
10083;DHT22;5080;48.528;8.078;2023-07-13T11:24:59;27.40;99.90
10083;DHT22;5080;48.528;8.078;2023-07-13T11:27:39;27.00;99.90
10083;DHT22;5080;48.528;8.078;2023-07-13T11:30:33;27.40;99.90
10083;DHT22;5080;48.528;8.078;2023-07-13T11:33:11;27.20;99.90
10083;DHT22;5080;48.528;8.078;2023-07-13T11:35:45;27.10;99.90
10083;DHT22;5080;48.528;8.078;2023-07-13T11:38:16;26.90;99.90
10083;DHT22;5080;48.528;8.078;2023-07-13T11:40:45;27.10;99.90
10083;DHT22;5080;48.528;8.078;2023-07-13T11:43:15;26.80;99.90
10083;DHT22;5080;48.528;8.078;2023-07-13T11:45:43;27.00;99.90
10083;DHT22;5080;48.528;8.078;2023-07-13T11:48:21;27.00;99.90
10083;DHT22;5080;48.528;8.078;2023-07-13T11:50:54;27.10;99.90
10083;DHT22;5080;48.528;8.078;2023-07-13T11:53:22;27.30;99.90
10083;DHT22;5080;48.528;8.078;2023-07-13T11:55:50;27.50;99.90
10083;DHT22;5080;48.528;8.078;2023-07-13T11:58:23;27.60;99.90
10083;DHT22;5080;48.528;8.078;2023-07-13T12:00:50;27.40;99.90
10083;DHT22;5080;48.528;8.078;2023-07-13T12:03:21;27.50;99.90
10083;DHT22;5080;48.528;8.078;2023-07-13T12:05:57;27.60;99.90
10083;DHT22;5080;48.528;8.078;2023-07-13T12:08:24;27.90;99.90
10083;DHT22;5080;48.528;8.078;2023-07-13T12:11:00;28.10;99.90
10083;DHT22;5080;48.528;8.078;2023-07-13T12:13:35;28.00;99.90
10083;DHT22;5080;48.528;8.078;2023-07-13T12:16:07;28.10;99.90
10083;DHT22;5080;48.528;8.078;2023-07-13T12:18:37;28.20;99.90
10083;DHT22;5080;48.528;8.078;2023-07-13T12:21:05;28.40;99.90
10083;DHT22;5080;48.528;8.078;2023-07-13T12:23:38;28.30;99.90
10083;DHT22;5080;48.528;8.078;2023-07-13T12:26:06;28.10;99.90
10083;DHT22;5080;48.528;8.078;2023-07-13T12:28:38;27.90;99.90
10083;DHT22;5080;48.528;8.078;2023-07-13T12:31:06;27.80;99.90
10083;DHT22;5080;48.528;8.078;2023-07-13T12:33:33;27.70;99.90
10083;DHT22;5080;48.528;8.078;2023-07-13T12:36:05;27.80;99.90
10083;DHT22;5080;48.528;8.078;2023-07-13T12:38:32;28.00;99.90
10083;DHT22;5080;48.528;8.078;2023-07-13T12:41:01;28.20;99.90
10083;DHT22;5080;48.528;8.078;2023-07-13T12:43:33;28.10;99.90
10083;DHT22;5080;48.528;8.078;2023-07-13T12:46:14;27.80;99.90
10083;DHT22;5080;48.528;8.078;2023-07-13T12:48:42;27.70;99.90
10083;DHT22;5080;48.528;8.078;2023-07-13T12:51:12;27.60;99.90
10083;DHT22;5080;48.528;8.078;2023-07-13T12:53:42;27.20;99.90
10083;DHT22;5080;48.528;8.078;2023-07-13T12:56:16;26.80;99.90
10083;DHT22;5080;48.528;8.078;2023-07-13T12:58:46;26.70;99.90
10083;DHT22;5080;48.528;8.078;2023-07-13T13:01:21;26.80;99.90
10083;DHT22;5080;48.528;8.078;2023-07-13T13:03:50;26.90;99.90
10083;DHT22;5080;48.528;8.078;2023-07-13T13:06:23;27.10;99.90
10083;DHT22;5080;48.528;8.078;2023-07-13T13:08:52;27.20;99.90
10083;DHT22;5080;48.528;8.078;2023-07-13T13:11:21;27.40;99.90
10083;DHT22;5080;48.528;8.078;2023-07-13T13:13:49;27.60;99.90
10083;DHT22;5080;48.528;8.078;2023-07-13T13:16:21;27.50;99.90
10083;DHT22;5080;48.528;8.078;2023-07-13T13:18:50;27.50;99.90
10083;DHT22;5080;48.528;8.078;2023-07-13T13:21:18;27.70;99.90
10083;DHT22;5080;48.528;8.078;2023-07-13T13:23:46;27.90;99.90
10083;DHT22;5080;48.528;8.078;2023-07-13T13:26:14;28.00;99.90
10083;DHT22;5080;48.528;8.078;2023-07-13T13:28:42;27.80;99.90
10083;DHT22;5080;48.528;8.078;2023-07-13T13:31:09;27.70;99.90
10083;DHT22;5080;48.528;8.078;2023-07-13T13:33:40;27.90;99.90
10083;DHT22;5080;48.528;8.078;2023-07-13T13:36:13;28.10;99.90
10083;DHT22;5080;48.528;8.078;2023-07-13T13:38:42;28.20;99.90
10083;DHT22;5080;48.528;8.078;2023-07-13T13:41:11;28.30;99.90
10083;DHT22;5080;48.528;8.078;2023-07-13T13:43:39;28.10;99.90
10083;DHT22;5080;48.528;8.078;2023-07-13T13:46:14;28.20;99.90
10083;DHT22;5080;48.528;8.078;2023-07-13T13:48:44;28.20;99.90
10083;DHT22;5080;48.528;8.078;2023-07-13T13:51:16;28.30;99.90
10083;DHT22;5080;48.528;8.078;2023-07-13T13:53:43;28.40;99.90
10083;DHT22;5080;48.528;8.078;2023-07-13T13:56:11;28.50;99.90
10083;DHT22;5080;48.528;8.078;2023-07-13T13:58:37;28.70;99.90
10083;DHT22;5080;48.528;8.078;2023-07-13T14:01:05;28.90;99.90
10083;DHT22;5080;48.528;8.078;2023-07-13T14:03:34;29.20;99.90
10083;DHT22;5080;48.528;8.078;2023-07-13T14:06:02;29.30;99.90
10083;DHT22;5080;48.528;8.078;2023-07-13T14:08:29;29.20;99.70
10083;DHT22;5080;48.528;8.078;2023-07-13T14:10:57;29.20;99.90
10083;DHT22;5080;48.528;8.078;2023-07-13T14:13:27;29.30;99.40
10083;DHT22;5080;48.528;8.078;2023-07-13T14:15:54;29.40;99.60
10083;DHT22;5080;48.528;8.078;2023-07-13T14:18:21;29.40;98.90
10083;DHT22;5080;48.528;8.078;2023-07-13T14:20:49;29.50;98.50
10083;DHT22;5080;48.528;8.078;2023-07-13T14:23:19;29.10;98.00
10083;DHT22;5080;48.528;8.078;2023-07-13T14:25:46;28.90;98.80
10083;DHT22;5080;48.528;8.078;2023-07-13T14:28:21;29.00;99.10
10083;DHT22;5080;48.528;8.078;2023-07-13T14:30:49;28.60;98.20
10083;DHT22;5080;48.528;8.078;2023-07-13T14:33:16;28.50;98.90
10083;DHT22;5080;48.528;8.078;2023-07-13T14:35:44;28.40;98.30
10083;DHT22;5080;48.528;8.078;2023-07-13T14:38:12;28.40;98.00
10083;DHT22;5080;48.528;8.078;2023-07-13T14:40:41;28.40;97.70
10083;DHT22;5080;48.528;8.078;2023-07-13T14:43:10;28.50;96.80
10083;DHT22;5080;48.528;8.078;2023-07-13T14:45:40;28.30;97.20
10083;DHT22;5080;48.528;8.078;2023-07-13T14:48:14;28.20;97.60
10083;DHT22;5080;48.528;8.078;2023-07-13T14:50:41;28.40;97.60
10083;DHT22;5080;48.528;8.078;2023-07-13T14:53:09;28.30;96.30
10083;DHT22;5080;48.528;8.078;2023-07-13T14:55:37;28.20;96.30
10083;DHT22;5080;48.528;8.078;2023-07-13T14:58:06;28.20;96.90
10083;DHT22;5080;48.528;8.078;2023-07-13T15:00:33;28.20;96.50
10083;DHT22;5080;48.528;8.078;2023-07-13T15:03:00;28.30;96.70
10083;DHT22;5080;48.528;8.078;2023-07-13T15:05:29;28.20;96.70
10083;DHT22;5080;48.528;8.078;2023-07-13T15:07:58;28.30;97.60
10083;DHT22;5080;48.528;8.078;2023-07-13T15:10:27;28.40;97.90
10083;DHT22;5080;48.528;8.078;2023-07-13T15:12:58;28.10;97.40
10083;DHT22;5080;48.528;8.078;2023-07-13T15:15:28;27.90;97.50
10083;DHT22;5080;48.528;8.078;2023-07-13T15:17:56;27.70;97.50
10083;DHT22;5080;48.528;8.078;2023-07-13T15:20:27;27.40;97.70
10083;DHT22;5080;48.528;8.078;2023-07-13T15:22:54;27.40;98.30
10083;DHT22;5080;48.528;8.078;2023-07-13T15:25:23;27.40;98.30
10083;DHT22;5080;48.528;8.078;2023-07-13T15:27:51;27.40;98.60
10083;DHT22;5080;48.528;8.078;2023-07-13T15:30:18;27.30;98.20
10083;DHT22;5080;48.528;8.078;2023-07-13T15:32:47;27.30;98.50
10083;DHT22;5080;48.528;8.078;2023-07-13T15:35:16;27.50;98.80
10083;DHT22;5080;48.528;8.078;2023-07-13T15:37:43;27.50;98.50
10083;DHT22;5080;48.528;8.078;2023-07-13T15:40:11;27.50;98.80
10083;DHT22;5080;48.528;8.078;2023-07-13T15:42:39;27.70;99.20
10083;DHT22;5080;48.528;8.078;2023-07-13T15:45:16;27.90;99.00
10083;DHT22;5080;48.528;8.078;2023-07-13T15:47:43;28.00;98.50
10083;DHT22;5080;48.528;8.078;2023-07-13T15:50:17;28.00;98.20
10083;DHT22;5080;48.528;8.078;2023-07-13T15:52:46;28.00;98.50
10083;DHT22;5080;48.528;8.078;2023-07-13T15:55:14;27.90;98.00
10083;DHT22;5080;48.528;8.078;2023-07-13T15:57:44;27.80;98.20
10083;DHT22;5080;48.528;8.078;2023-07-13T16:00:21;27.70;98.50
10083;DHT22;5080;48.528;8.078;2023-07-13T16:02:48;27.70;98.90
10083;DHT22;5080;48.528;8.078;2023-07-13T16:05:17;27.50;98.40